sensor_id;sensor_type;location;lat;lon;timestamp;P1;durP1;ratioP1;P2;durP2;ratioP2
10440;SDS011;5268;49.346;9.522;2023-07-16T03:09:35;4.43;;;1.70;;
10440;SDS011;5268;49.346;9.522;2023-07-16T03:14:37;5.47;;;2.08;;
10440;SDS011;5268;49.346;9.522;2023-07-16T03:19:39;4.25;;;1.73;;
10440;SDS011;5268;49.346;9.522;2023-07-16T03:24:43;3.65;;;1.38;;
10440;SDS011;5268;49.346;9.522;2023-07-16T03:29:44;3.22;;;1.75;;
10440;SDS011;5268;49.346;9.522;2023-07-16T03:34:46;6.03;;;2.00;;
10440;SDS011;5268;49.346;9.522;2023-07-16T03:39:51;6.63;;;2.03;;
10440;SDS011;5268;49.346;9.522;2023-07-16T03:44:53;3.42;;;1.83;;
10440;SDS011;5268;49.346;9.522;2023-07-16T03:49:55;3.92;;;1.85;;
10440;SDS011;5268;49.346;9.522;2023-07-16T03:54:58;5.45;;;1.98;;
10440;SDS011;5268;49.346;9.522;2023-07-16T04:00:00;4.38;;;2.00;;
10440;SDS011;5268;49.346;9.522;2023-07-16T04:05:04;5.30;;;2.17;;
10440;SDS011;5268;49.346;9.522;2023-07-16T04:10:08;3.83;;;1.90;;
10440;SDS011;5268;49.346;9.522;2023-07-16T04:15:11;6.10;;;1.98;;
10440;SDS011;5268;49.346;9.522;2023-07-16T04:20:13;4.28;;;1.70;;
10440;SDS011;5268;49.346;9.522;2023-07-16T04:25:17;8.25;;;2.15;;
10440;SDS011;5268;49.346;9.522;2023-07-16T04:30:19;6.20;;;2.03;;
10440;SDS011;5268;49.346;9.522;2023-07-16T04:35:21;4.70;;;2.17;;
10440;SDS011;5268;49.346;9.522;2023-07-16T04:40:24;6.38;;;2.10;;
10440;SDS011;5268;49.346;9.522;2023-07-16T04:45:26;4.18;;;1.90;;
10440;SDS011;5268;49.346;9.522;2023-07-16T04:50:28;3.72;;;1.77;;
10440;SDS011;5268;49.346;9.522;2023-07-16T04:55:35;7.82;;;2.17;;
10440;SDS011;5268;49.346;9.522;2023-07-16T05:00:39;5.38;;;1.98;;
10440;SDS011;5268;49.346;9.522;2023-07-16T05:05:41;6.03;;;2.00;;
10440;SDS011;5268;49.346;9.522;2023-07-16T05:10:45;6.13;;;2.10;;
10440;SDS011;5268;49.346;9.522;2023-07-16T05:15:47;5.80;;;1.83;;
10440;SDS011;5268;49.346;9.522;2023-07-16T05:20:49;4.15;;;2.00;;
10440;SDS011;5268;49.346;9.522;2023-07-16T05:25:52;6.30;;;2.00;;
10440;SDS011;5268;49.346;9.522;2023-07-16T05:30:57;10.00;;;2.38;;
10440;SDS011;5268;49.346;9.522;2023-07-16T05:36:00;7.38;;;2.10;;
10440;SDS011;5268;49.346;9.522;2023-07-16T05:41:03;5.35;;;2.10;;
10440;SDS011;5268;49.346;9.522;2023-07-16T05:46:07;4.88;;;2.05;;
10440;SDS011;5268;49.346;9.522;2023-07-16T05:51:09;5.68;;;2.10;;
10440;SDS011;5268;49.346;9.522;2023-07-16T05:56:12;4.85;;;2.03;;
10440;SDS011;5268;49.346;9.522;2023-07-16T06:01:14;6.82;;;1.92;;
10440;SDS011;5268;49.346;9.522;2023-07-16T06:06:16;3.78;;;1.70;;
10440;SDS011;5268;49.346;9.522;2023-07-16T06:11:20;4.28;;;1.70;;
10440;SDS011;5268;49.346;9.522;2023-07-16T06:16:22;14.25;;;2.90;;
10440;SDS011;5268;49.346;9.522;2023-07-16T06:21:24;5.10;;;2.20;;
10440;SDS011;5268;49.346;9.522;2023-07-16T06:26:27;5.43;;;2.38;;
10440;SDS011;5268;49.346;9.522;2023-07-16T06:31:29;5.53;;;2.40;;
10440;SDS011;5268;49.346;9.522;2023-07-16T06:36:31;6.68;;;2.33;;
10440;SDS011;5268;49.346;9.522;2023-07-16T06:41:35;6.63;;;2.45;;
10440;SDS011;5268;49.346;9.522;2023-07-16T06:46:36;5.00;;;2.10;;
10440;SDS011;5268;49.346;9.522;2023-07-16T06:51:39;3.97;;;2.10;;
10440;SDS011;5268;49.346;9.522;2023-07-16T06:56:42;3.78;;;2.22;;
10440;SDS011;5268;49.346;9.522;2023-07-16T07:01:44;4.93;;;2.20;;
10440;SDS011;5268;49.346;9.522;2023-07-16T07:06:46;4.78;;;2.17;;
10440;SDS011;5268;49.346;9.522;2023-07-16T07:11:49;5.47;;;2.50;;
10440;SDS011;5268;49.346;9.522;2023-07-16T07:16:51;4.97;;;2.33;;
10440;SDS011;5268;49.346;9.522;2023-07-16T07:21:53;5.75;;;2.70;;
10440;SDS011;5268;49.346;9.522;2023-07-16T07:26:57;4.80;;;1.98;;
10440;SDS011;5268;49.346;9.522;2023-07-16T07:31:59;4.05;;;2.30;;
10440;SDS011;5268;49.346;9.522;2023-07-16T07:37:01;5.50;;;2.35;;
10440;SDS011;5268;49.346;9.522;2023-07-16T07:42:05;4.60;;;2.20;;
10440;SDS011;5268;49.346;9.522;2023-07-16T07:47:07;5.50;;;2.22;;
10440;SDS011;5268;49.346;9.522;2023-07-16T07:52:09;4.43;;;2.30;;
10440;SDS011;5268;49.346;9.522;2023-07-16T07:57:13;3.13;;;1.92;;
10440;SDS011;5268;49.346;9.522;2023-07-16T08:02:15;7.35;;;2.67;;
10440;SDS011;5268;49.346;9.522;2023-07-16T08:07:18;4.38;;;2.20;;
10440;SDS011;5268;49.346;9.522;2023-07-16T08:12:21;3.83;;;2.50;;
10440;SDS011;5268;49.346;9.522;2023-07-16T08:17:23;4.15;;;2.20;;
10440;SDS011;5268;49.346;9.522;2023-07-16T08:22:25;5.50;;;2.22;;
10440;SDS011;5268;49.346;9.522;2023-07-16T08:27:29;5.90;;;2.10;;
10440;SDS011;5268;49.346;9.522;2023-07-16T08:32:31;6.57;;;2.40;;
10440;SDS011;5268;49.346;9.522;2023-07-16T08:37:33;4.07;;;2.10;;
10440;SDS011;5268;49.346;9.522;2023-07-16T08:42:36;4.38;;;2.10;;
10440;SDS011;5268;49.346;9.522;2023-07-16T08:47:39;3.80;;;1.90;;
10440;SDS011;5268;49.346;9.522;2023-07-16T08:52:41;6.70;;;2.25;;
10440;SDS011;5268;49.346;9.522;2023-07-16T08:57:46;3.58;;;2.00;;
10440;SDS011;5268;49.346;9.522;2023-07-16T09:02:48;6.03;;;1.85;;
10440;SDS011;5268;49.346;9.522;2023-07-16T09:07:50;4.53;;;2.10;;
10440;SDS011;5268;49.346;9.522;2023-07-16T09:12:57;3.17;;;1.92;;
10440;SDS011;5268;49.346;9.522;2023-07-16T09:17:59;6.05;;;2.22;;
10440;SDS011;5268;49.346;9.522;2023-07-16T09:23:02;7.05;;;2.30;;
10440;SDS011;5268;49.346;9.522;2023-07-16T09:28:05;5.05;;;2.17;;
10440;SDS011;5268;49.346;9.522;2023-07-16T09:33:10;5.80;;;2.08;;
10440;SDS011;5268;49.346;9.522;2023-07-16T09:38:14;4.15;;;2.20;;
10440;SDS011;5268;49.346;9.522;2023-07-16T09:43:18;6.75;;;1.80;;
10440;SDS011;5268;49.346;9.522;2023-07-16T09:48:21;3.35;;;2.00;;
10440;SDS011;5268;49.346;9.522;2023-07-16T09:53:24;4.78;;;2.17;;
10440;SDS011;5268;49.346;9.522;2023-07-16T09:58:27;5.22;;;1.92;;
10440;SDS011;5268;49.346;9.522;2023-07-16T10:03:30;8.77;;;2.30;;
10440;SDS011;5268;49.346;9.522;2023-07-16T10:08:33;5.18;;;2.15;;
10440;SDS011;5268;49.346;9.522;2023-07-16T10:13:37;4.25;;;2.05;;
10440;SDS011;5268;49.346;9.522;2023-07-16T10:18:39;3.45;;;2.10;;
10440;SDS011;5268;49.346;9.522;2023-07-16T10:23:56;3.83;;;1.83;;
10440;SDS011;5268;49.346;9.522;2023-07-16T10:29:01;4.68;;;1.92;;
10440;SDS011;5268;49.346;9.522;2023-07-16T10:34:03;3.50;;;2.00;;
10440;SDS011;5268;49.346;9.522;2023-07-16T10:39:06;4.60;;;2.00;;
10440;SDS011;5268;49.346;9.522;2023-07-16T10:44:09;4.25;;;2.00;;
10440;SDS011;5268;49.346;9.522;2023-07-16T10:49:15;3.78;;;1.75;;
10440;SDS011;5268;49.346;9.522;2023-07-16T10:54:19;6.82;;;2.00;;
10440;SDS011;5268;49.346;9.522;2023-07-16T10:59:23;5.47;;;2.13;;
10440;SDS011;5268;49.346;9.522;2023-07-16T11:04:25;3.67;;;1.70;;
10440;SDS011;5268;49.346;9.522;2023-07-16T11:09:34;3.38;;;1.90;;
10440;SDS011;5268;49.346;9.522;2023-07-16T11:14:44;3.60;;;1.80;;
10440;SDS011;5268;49.346;9.522;2023-07-16T11:19:47;5.40;;;2.17;;
10440;SDS011;5268;49.346;9.522;2023-07-16T11:24:50;4.90;;;2.20;;
10440;SDS011;5268;49.346;9.522;2023-07-16T11:29:55;5.35;;;2.28;;
10440;SDS011;5268;49.346;9.522;2023-07-16T11:34:58;4.47;;;2.00;;
10440;SDS011;5268;49.346;9.522;2023-07-16T11:40:01;5.43;;;1.88;;
10440;SDS011;5268;49.346;9.522;2023-07-16T11:45:14;3.13;;;1.80;;
10440;SDS011;5268;49.346;9.522;2023-07-16T11:50:18;4.82;;;2.05;;
10440;SDS011;5268;49.346;9.522;2023-07-16T11:55:20;4.95;;;1.95;;
10440;SDS011;5268;49.346;9.522;2023-07-16T12:00:23;3.80;;;1.77;;
10440;SDS011;5268;49.346;9.522;2023-07-16T12:05:25;4.72;;;2.10;;
10440;SDS011;5268;49.346;9.522;2023-07-16T12:10:27;3.45;;;2.20;;
10440;SDS011;5268;49.346;9.522;2023-07-16T12:15:31;4.90;;;2.00;;
10440;SDS011;5268;49.346;9.522;2023-07-16T12:20:34;5.03;;;2.25;;
10440;SDS011;5268;49.346;9.522;2023-07-16T12:25:36;5.03;;;2.30;;
10440;SDS011;5268;49.346;9.522;2023-07-16T12:30:40;4.25;;;1.80;;
10440;SDS011;5268;49.346;9.522;2023-07-16T12:35:42;3.33;;;1.80;;
10440;SDS011;5268;49.346;9.522;2023-07-16T12:40:44;4.43;;;2.20;;
10440;SDS011;5268;49.346;9.522;2023-07-16T12:45:48;5.28;;;2.08;;
10440;SDS011;5268;49.346;9.522;2023-07-16T12:50:51;2.88;;;1.80;;
10440;SDS011;5268;49.346;9.522;2023-07-16T12:55:53;4.60;;;1.90;;
10440;SDS011;5268;49.346;9.522;2023-07-16T13:00:56;3.30;;;1.80;;
10440;SDS011;5268;49.346;9.522;2023-07-16T13:05:58;3.90;;;2.15;;
10440;SDS011;5268;49.346;9.522;2023-07-16T13:11:00;3.58;;;2.17;;
10440;SDS011;5268;49.346;9.522;2023-07-16T13:16:04;3.80;;;2.03;;
10440;SDS011;5268;49.346;9.522;2023-07-16T13:21:06;3.42;;;2.03;;
10440;SDS011;5268;49.346;9.522;2023-07-16T13:26:08;5.30;;;2.30;;
10440;SDS011;5268;49.346;9.522;2023-07-16T13:31:11;4.57;;;2.20;;
10440;SDS011;5268;49.346;9.522;2023-07-16T13:36:13;4.05;;;2.13;;
10440;SDS011;5268;49.346;9.522;2023-07-16T13:41:15;5.32;;;2.17;;
10440;SDS011;5268;49.346;9.522;2023-07-16T13:46:19;4.15;;;2.10;;
10440;SDS011;5268;49.346;9.522;2023-07-16T13:51:21;4.28;;;1.92;;
10440;SDS011;5268;49.346;9.522;2023-07-16T13:56:22;4.13;;;2.30;;
10440;SDS011;5268;49.346;9.522;2023-07-16T14:01:26;4.60;;;1.95;;
10440;SDS011;5268;49.346;9.522;2023-07-16T14:06:28;4.20;;;2.10;;
10440;SDS011;5268;49.346;9.522;2023-07-16T14:11:31;2.90;;;2.08;;
10440;SDS011;5268;49.346;9.522;2023-07-16T14:16:34;4.50;;;2.15;;
10440;SDS011;5268;49.346;9.522;2023-07-16T14:21:38;3.75;;;2.00;;
10440;SDS011;5268;49.346;9.522;2023-07-16T14:26:41;3.08;;;1.80;;
10440;SDS011;5268;49.346;9.522;2023-07-16T14:31:45;3.28;;;1.83;;
10440;SDS011;5268;49.346;9.522;2023-07-16T14:36:47;3.90;;;2.10;;
10440;SDS011;5268;49.346;9.522;2023-07-16T14:41:49;2.95;;;2.13;;
10440;SDS011;5268;49.346;9.522;2023-07-16T14:46:52;4.30;;;1.92;;
10440;SDS011;5268;49.346;9.522;2023-07-16T14:51:55;5.13;;;2.50;;
10440;SDS011;5268;49.346;9.522;2023-07-16T14:56:57;3.65;;;2.30;;
10440;SDS011;5268;49.346;9.522;2023-07-16T15:02:02;3.83;;;2.08;;
10440;SDS011;5268;49.346;9.522;2023-07-16T15:07:05;5.75;;;2.08;;
10440;SDS011;5268;49.346;9.522;2023-07-16T15:12:07;3.67;;;2.20;;
10440;SDS011;5268;49.346;9.522;2023-07-16T15:17:11;3.67;;;2.45;;
10440;SDS011;5268;49.346;9.522;2023-07-16T15:22:14;5.03;;;2.20;;
10440;SDS011;5268;49.346;9.522;2023-07-16T15:27:16;3.55;;;2.20;;
10440;SDS011;5268;49.346;9.522;2023-07-16T15:32:20;2.83;;;2.20;;
10440;SDS011;5268;49.346;9.522;2023-07-16T15:37:22;3.13;;;2.13;;
10440;SDS011;5268;49.346;9.522;2023-07-16T15:42:24;7.80;;;6.40;;
10440;SDS011;5268;49.346;9.522;2023-07-16T15:47:28;5.05;;;3.47;;
10440;SDS011;5268;49.346;9.522;2023-07-16T15:52:30;3.25;;;2.30;;
10440;SDS011;5268;49.346;9.522;2023-07-16T15:57:33;3.92;;;2.50;;
10440;SDS011;5268;49.346;9.522;2023-07-16T16:02:36;3.58;;;2.17;;
10440;SDS011;5268;49.346;9.522;2023-07-16T16:07:41;5.13;;;2.50;;
10440;SDS011;5268;49.346;9.522;2023-07-16T16:12:44;5.93;;;2.70;;
10440;SDS011;5268;49.346;9.522;2023-07-16T16:17:48;5.35;;;2.67;;
10440;SDS011;5268;49.346;9.522;2023-07-16T16:22:50;3.80;;;2.72;;
10440;SDS011;5268;49.346;9.522;2023-07-16T16:27:52;3.78;;;2.60;;
10440;SDS011;5268;49.346;9.522;2023-07-16T16:32:56;4.22;;;2.40;;
10440;SDS011;5268;49.346;9.522;2023-07-16T16:37:59;4.05;;;2.55;;
10440;SDS011;5268;49.346;9.522;2023-07-16T16:43:01;5.88;;;2.60;;
10440;SDS011;5268;49.346;9.522;2023-07-16T16:48:06;5.18;;;3.75;;
10440;SDS011;5268;49.346;9.522;2023-07-16T16:53:09;3.85;;;2.28;;
10440;SDS011;5268;49.346;9.522;2023-07-16T16:58:11;3.75;;;2.50;;
10440;SDS011;5268;49.346;9.522;2023-07-16T17:03:14;4.30;;;2.72;;
10440;SDS011;5268;49.346;9.522;2023-07-16T17:08:16;4.22;;;2.38;;
10440;SDS011;5268;49.346;9.522;2023-07-16T17:13:18;4.18;;;2.58;;
10440;SDS011;5268;49.346;9.522;2023-07-16T17:18:21;4.43;;;2.75;;
10440;SDS011;5268;49.346;9.522;2023-07-16T17:23:23;3.67;;;2.60;;
10440;SDS011;5268;49.346;9.522;2023-07-16T17:28:26;4.63;;;2.63;;
10440;SDS011;5268;49.346;9.522;2023-07-16T17:33:29;4.97;;;2.63;;
10440;SDS011;5268;49.346;9.522;2023-07-16T17:38:31;6.03;;;2.58;;
10440;SDS011;5268;49.346;9.522;2023-07-16T17:43:33;4.57;;;2.70;;
10440;SDS011;5268;49.346;9.522;2023-07-16T17:48:36;3.95;;;2.70;;
10440;SDS011;5268;49.346;9.522;2023-07-16T17:53:39;4.03;;;2.58;;
10440;SDS011;5268;49.346;9.522;2023-07-16T17:58:41;4.63;;;2.47;;
10440;SDS011;5268;49.346;9.522;2023-07-16T18:03:45;4.18;;;2.90;;
10440;SDS011;5268;49.346;9.522;2023-07-16T18:08:47;3.97;;;2.67;;
10440;SDS011;5268;49.346;9.522;2023-07-16T18:13:49;4.88;;;2.70;;
10440;SDS011;5268;49.346;9.522;2023-07-16T18:18:55;4.57;;;2.50;;
10440;SDS011;5268;49.346;9.522;2023-07-16T18:23:57;4.43;;;2.80;;
10440;SDS011;5268;49.346;9.522;2023-07-16T18:28:59;3.95;;;2.80;;
10440;SDS011;5268;49.346;9.522;2023-07-16T18:34:03;5.80;;;2.70;;
10440;SDS011;5268;49.346;9.522;2023-07-16T18:39:06;4.28;;;3.00;;
10440;SDS011;5268;49.346;9.522;2023-07-16T18:44:09;4.20;;;2.88;;
10440;SDS011;5268;49.346;9.522;2023-07-16T18:49:13;5.05;;;2.70;;
10440;SDS011;5268;49.346;9.522;2023-07-16T18:54:15;7.90;;;3.42;;
10440;SDS011;5268;49.346;9.522;2023-07-16T18:59:17;3.85;;;2.80;;
10440;SDS011;5268;49.346;9.522;2023-07-16T19:04:20;6.53;;;3.00;;
10440;SDS011;5268;49.346;9.522;2023-07-16T19:09:23;3.72;;;2.70;;
10440;SDS011;5268;49.346;9.522;2023-07-16T19:14:24;5.65;;;3.22;;
10440;SDS011;5268;49.346;9.522;2023-07-16T19:19:28;6.90;;;3.13;;
10440;SDS011;5268;49.346;9.522;2023-07-16T19:24:30;6.53;;;3.03;;
10440;SDS011;5268;49.346;9.522;2023-07-16T19:29:33;4.25;;;2.72;;
10440;SDS011;5268;49.346;9.522;2023-07-16T19:34:36;4.88;;;2.83;;
10440;SDS011;5268;49.346;9.522;2023-07-16T19:39:38;4.32;;;3.10;;
10440;SDS011;5268;49.346;9.522;2023-07-16T19:44:40;4.10;;;2.60;;
10440;SDS011;5268;49.346;9.522;2023-07-16T19:49:44;4.03;;;3.00;;
10440;SDS011;5268;49.346;9.522;2023-07-16T19:54:46;4.13;;;2.95;;
10440;SDS011;5268;49.346;9.522;2023-07-16T19:59:48;5.93;;;3.03;;
10440;SDS011;5268;49.346;9.522;2023-07-16T20:04:51;5.22;;;2.95;;
10440;SDS011;5268;49.346;9.522;2023-07-16T20:09:53;5.78;;;3.00;;
10440;SDS011;5268;49.346;9.522;2023-07-16T20:14:55;4.32;;;3.03;;
10440;SDS011;5268;49.346;9.522;2023-07-16T20:19:58;4.47;;;3.08;;
10440;SDS011;5268;49.346;9.522;2023-07-16T20:25:00;6.30;;;3.55;;
10440;SDS011;5268;49.346;9.522;2023-07-16T20:30:05;5.18;;;2.90;;
10440;SDS011;5268;49.346;9.522;2023-07-16T20:35:10;6.18;;;3.08;;
10440;SDS011;5268;49.346;9.522;2023-07-16T20:40:12;6.65;;;2.90;;
10440;SDS011;5268;49.346;9.522;2023-07-16T20:45:16;5.13;;;2.83;;
10440;SDS011;5268;49.346;9.522;2023-07-16T20:50:21;7.15;;;3.38;;
10440;SDS011;5268;49.346;9.522;2023-07-16T20:55:25;4.80;;;3.38;;
10440;SDS011;5268;49.346;9.522;2023-07-16T21:00:27;7.30;;;3.58;;
10440;SDS011;5268;49.346;9.522;2023-07-16T21:05:33;6.90;;;3.65;;
10440;SDS011;5268;49.346;9.522;2023-07-16T21:10:35;5.00;;;3.30;;
10440;SDS011;5268;49.346;9.522;2023-07-16T21:15:37;5.82;;;3.15;;
10440;SDS011;5268;49.346;9.522;2023-07-16T21:20:41;5.38;;;3.28;;
10440;SDS011;5268;49.346;9.522;2023-07-16T21:25:43;5.85;;;3.40;;
10440;SDS011;5268;49.346;9.522;2023-07-16T21:30:46;5.43;;;3.08;;
10440;SDS011;5268;49.346;9.522;2023-07-16T21:35:49;3.85;;;3.20;;
10440;SDS011;5268;49.346;9.522;2023-07-16T21:40:52;5.07;;;3.40;;
10440;SDS011;5268;49.346;9.522;2023-07-16T21:45:54;5.32;;;3.40;;
10440;SDS011;5268;49.346;9.522;2023-07-16T21:50:57;5.70;;;3.22;;
